Time;durP1;ratioP1;P1;durP2;ratioP2;P2;SDS_P1;SDS_P2;PMS_P1;PMS_P2;Temp;Humidity;BMP_temperature;BMP_pressure;BME280_temperature;BME280_humidity;BME280_pressure;Samples;Min_cycle;Max_cycle;Signal;HPM_P1;HPM_P2
2022/08/29 00:01:48;;;;;;;33.65;17.77;;;;;;;14.98;94.93;99096.69;1698326;83;21656;-72
2022/08/29 00:04:17;;;;;;;32.58;16.65;;;;;;;14.98;95.05;99100.03;1698456;82;21442;-72
2022/08/29 00:06:44;;;;;;;33.65;17.32;;;;;;;14.96;94.85;99104.53;1693931;84;21000;-72
2022/08/29 00:09:16;;;;;;;32.40;17.07;;;;;;;14.94;94.88;99104.66;1694207;83;20921;-72
2022/08/29 00:11:45;;;;;;;32.00;16.05;;;;;;;14.91;94.88;99106.76;1692305;84;20940;-72
2022/08/29 00:14:12;;;;;;;30.35;17.12;;;;;;;14.88;95.17;99101.94;1692591;84;21003;-71
2022/08/29 00:16:43;;;;;;;30.80;15.90;;;;;;;14.81;95.96;99100.59;1695973;83;21523;-71
2022/08/29 00:19:12;;;;;;;27.95;15.20;;;;;;;14.76;96.49;99102.23;1706132;83;21025;-71
2022/08/29 00:21:39;;;;;;;29.30;16.97;;;;;;;14.72;96.56;99102.72;1704449;83;21164;-71
2022/08/29 00:24:08;;;;;;;32.38;17.73;;;;;;;14.71;96.83;99100.30;1695145;83;20945;-72
2022/08/29 00:26:37;;;;;;;29.70;15.35;;;;;;;14.67;97.07;99095.27;1695838;83;21703;-72
2022/08/29 00:29:07;;;;;;;31.45;16.62;;;;;;;14.62;96.99;99094.94;1697873;83;21445;-72
2022/08/29 00:31:37;;;;;;;32.13;14.65;;;;;;;14.59;96.91;99095.64;1699787;83;21009;-73
2022/08/29 00:34:07;;;;;;;32.60;17.30;;;;;;;14.57;96.96;99095.20;1699305;83;21853;-71
2022/08/29 00:36:38;;;;;;;29.57;15.32;;;;;;;14.54;97.05;99096.70;1696630;83;21001;-71
2022/08/29 00:39:09;;;;;;;28.70;15.50;;;;;;;14.53;97.55;99102.58;1700463;84;20926;-70
2022/08/29 00:41:37;;;;;;;31.93;15.43;;;;;;;14.50;98.27;99099.95;1700899;84;20914;-70
2022/08/29 00:44:06;;;;;;;33.05;15.85;;;;;;;14.49;98.11;99104.44;1703696;83;20994;-70
2022/08/29 00:46:45;;;;;;;29.48;15.60;;;;;;;14.46;97.92;99100.42;1699796;83;21098;-71
2022/08/29 00:49:39;;;;;;;26.17;14.68;;;;;;;14.41;97.81;99106.77;1701363;83;20901;-72
2022/08/29 00:52:15;;;;;;;29.15;15.65;;;;;;;14.37;97.91;99106.67;1708718;83;20906;-71
2022/08/29 00:54:46;;;;;;;30.45;16.40;;;;;;;14.35;98.20;99110.94;1708349;83;21444;-71
2022/08/29 00:57:17;;;;;;;31.23;15.53;;;;;;;14.36;98.66;99116.69;1686852;83;20938;-70
2022/08/29 00:59:44;;;;;;;29.85;14.93;;;;;;;14.37;98.79;99111.39;1704618;84;21225;-70
2022/08/29 01:02:11;;;;;;;27.73;14.90;;;;;;;14.37;99.30;99120.48;1701392;84;21006;-70
2022/08/29 01:04:42;;;;;;;29.07;14.65;;;;;;;14.37;99.83;99116.34;1700685;84;20900;-70
2022/08/29 01:07:11;;;;;;;25.30;15.43;;;;;;;14.36;99.72;99114.73;1692245;83;21296;-71
2022/08/29 01:09:45;;;;;;;21.97;14.93;;;;;;;14.36;99.70;99112.55;1692620;84;21031;-71
2022/08/29 01:12:16;;;;;;;23.80;15.75;;;;;;;14.34;99.76;99110.14;1698633;83;21297;-71
2022/08/29 01:14:53;;;;;;;29.95;14.75;;;;;;;14.33;99.61;99113.25;1696003;83;21106;-71
2022/08/29 01:17:38;;;;;;;24.90;15.60;;;;;;;14.31;99.42;99112.80;1696313;83;21050;-70
2022/08/29 01:20:24;;;;;;;25.37;15.20;;;;;;;14.29;99.51;99117.28;1695748;83;21005;-70
2022/08/29 01:23:01;;;;;;;31.27;15.98;;;;;;;14.25;99.15;99119.72;1677053;83;20990;-70
2022/08/29 01:25:32;;;;;;;26.95;15.55;;;;;;;14.19;99.33;99117.78;1700088;83;21131;-70
2022/08/29 01:28:12;;;;;;;34.60;16.25;;;;;;;14.16;99.44;99105.48;1701164;84;20993;-71
2022/08/29 01:31:06;;;;;;;29.20;16.12;;;;;;;14.14;99.45;99106.41;1702335;84;21005;-71
2022/08/29 01:33:48;;;;;;;28.75;16.17;;;;;;;14.12;99.78;99107.33;1699057;84;21088;-70
2022/08/29 01:36:23;;;;;;;23.83;14.83;;;;;;;14.11;99.86;99108.48;1701411;83;20946;-71
2022/08/29 01:38:52;;;;;;;27.02;16.07;;;;;;;14.07;100.00;99108.95;1695371;83;21174;-71
2022/08/29 01:41:22;;;;;;;31.77;16.45;;;;;;;14.06;100.00;99108.73;1698749;83;20851;-71
2022/08/29 01:43:53;;;;;;;28.65;15.48;;;;;;;14.06;100.00;99112.06;1709930;83;20972;-71
2022/08/29 01:46:28;;;;;;;28.65;16.90;;;;;;;14.04;100.00;99113.80;1702622;84;21052;-71
2022/08/29 01:48:56;;;;;;;27.27;15.90;;;;;;;14.03;100.00;99107.24;1701894;83;20972;-72
2022/08/29 01:51:27;;;;;;;28.70;15.70;;;;;;;14.00;100.00;99105.98;1698854;83;21284;-70
2022/08/29 01:54:00;;;;;;;25.75;15.58;;;;;;;14.00;100.00;99110.70;1711130;83;21071;-70
2022/08/29 01:56:30;;;;;;;26.37;15.18;;;;;;;13.98;100.00;99107.48;1700325;83;20977;-70
2022/08/29 01:59:00;;;;;;;28.27;15.53;;;;;;;13.97;100.00;99112.20;1701039;83;21516;-70
2022/08/29 02:01:37;;;;;;;32.38;16.10;;;;;;;13.96;100.00;99109.78;1696032;83;20942;-70
2022/08/29 02:04:06;;;;;;;25.90;15.53;;;;;;;13.94;100.00;99113.47;1699408;83;21491;-71
2022/08/29 02:06:36;;;;;;;29.35;15.90;;;;;;;13.91;100.00;99112.78;1694015;83;21533;-70
2022/08/29 02:09:05;;;;;;;30.77;16.07;;;;;;;13.90;100.00;99110.60;1692511;83;21057;-71
2022/08/29 02:11:40;;;;;;;37.35;16.52;;;;;;;13.89;100.00;99114.52;1694463;84;20873;-70
2022/08/29 02:14:07;;;;;;;28.77;14.43;;;;;;;13.88;100.00;99116.47;1696666;83;20898;-71
2022/08/29 02:16:39;;;;;;;28.23;15.55;;;;;;;13.86;100.00;99116.02;1709986;83;21160;-70
2022/08/29 02:19:08;;;;;;;26.17;15.20;;;;;;;13.80;100.00;99109.16;1708390;84;20940;-70
2022/08/29 02:21:39;;;;;;;31.05;14.83;;;;;;;13.75;100.00;99109.39;1697471;83;20951;-70
2022/08/29 02:24:09;;;;;;;35.08;16.60;;;;;;;13.69;100.00;99103.08;1700968;84;20960;-69
2022/08/29 02:26:41;;;;;;;29.07;15.23;;;;;;;13.66;100.00;99103.20;1702562;83;20893;-67
2022/08/29 02:29:11;;;;;;;25.90;15.53;;;;;;;13.60;100.00;99104.58;1695012;83;21793;-67
2022/08/29 02:31:42;;;;;;;26.75;14.60;;;;;;;13.55;100.00;99102.05;1692429;83;21547;-67
2022/08/29 02:34:13;;;;;;;31.30;14.78;;;;;;;13.55;100.00;99100.67;1691647;84;21141;-68
2022/08/29 02:36:44;;;;;;;31.07;16.00;;;;;;;13.55;100.00;99106.19;1701202;83;21054;-67
2022/08/29 02:39:14;;;;;;;27.73;15.90;;;;;;;13.52;100.00;99099.41;1697696;84;21021;-68
2022/08/29 02:41:43;;;;;;;43.83;17.30;;;;;;;13.51;100.00;99097.81;1706427;83;21162;-68
2022/08/29 02:44:15;;;;;;;31.30;14.80;;;;;;;13.50;100.00;99103.67;1699944;84;20934;-68
2022/08/29 02:46:47;;;;;;;29.18;15.63;;;;;;;13.52;100.00;99102.75;1695531;84;21490;-67
2022/08/29 02:49:17;;;;;;;25.70;14.95;;;;;;;13.56;100.00;99106.42;1702465;83;20976;-67
2022/08/29 02:51:44;;;;;;;29.07;15.20;;;;;;;13.61;100.00;99102.63;1701536;83;21501;-68
2022/08/29 02:54:14;;;;;;;25.57;15.28;;;;;;;13.59;100.00;99109.06;1694105;83;21123;-70
2022/08/29 02:56:42;;;;;;;30.23;14.87;;;;;;;13.53;100.00;99103.78;1696955;83;21013;-70
2022/08/29 02:59:12;;;;;;;28.30;15.50;;;;;;;13.51;100.00;99103.90;1706626;82;20942;-67
2022/08/29 03:01:40;;;;;;;28.45;15.30;;;;;;;13.49;100.00;99102.06;1713080;83;21032;-67
2022/08/29 03:04:09;;;;;;;28.92;14.58;;;;;;;13.48;100.00;99102.63;1704732;83;20963;-67
2022/08/29 03:06:39;;;;;;;26.05;14.13;;;;;;;13.46;100.00;99104.93;1691866;84;21178;-69
2022/08/29 03:09:09;;;;;;;26.48;14.40;;;;;;;13.47;100.00;99103.78;1693882;83;20994;-72
2022/08/29 03:11:37;;;;;;;25.70;13.83;;;;;;;13.57;100.00;99106.66;1689092;83;20970;-74
2022/08/29 03:14:05;;;;;;;35.05;13.95;;;;;;;13.63;100.00;99109.98;1696097;83;21014;-73
2022/08/29 03:16:34;;;;;;;41.28;13.75;;;;;;;13.67;100.00;99115.03;1698705;83;21577;-69
2022/08/29 03:19:05;;;;;;;41.75;14.33;;;;;;;13.68;100.00;99114.69;1694772;83;21002;-68
2022/08/29 03:21:35;;;;;;;28.77;14.00;;;;;;;13.71;100.00;99116.75;1691622;84;20901;-69
2022/08/29 03:24:12;;;;;;;33.48;14.73;;;;;;;13.71;100.00;99125.03;1688592;83;20904;-68
2022/08/29 03:26:45;;;;;;;33.18;15.45;;;;;;;13.70;100.00;99124.80;1687324;84;21015;-67
2022/08/29 03:29:13;;;;;;;34.80;15.35;;;;;;;13.69;100.00;99114.11;1698882;83;20927;-67
2022/08/29 03:31:43;;;;;;;29.85;14.60;;;;;;;13.69;100.00;99118.25;1701734;83;21114;-68
2022/08/29 03:34:18;;;;;;;25.55;13.93;;;;;;;13.63;100.00;99118.25;1698793;83;20966;-68
2022/08/29 03:36:46;;;;;;;26.60;13.38;;;;;;;13.57;100.00;99125.16;1702563;83;20967;-66
2022/08/29 03:39:21;;;;;;;27.27;13.48;;;;;;;13.53;100.00;99122.28;1678431;84;21480;-68
2022/08/29 03:41:58;;;;;;;23.65;13.00;;;;;;;13.47;100.00;99116.19;1704275;83;21010;-67
2022/08/29 03:44:31;;;;;;;24.60;13.95;;;;;;;13.46;100.00;99122.86;1699293;83;20930;-68
2022/08/29 03:47:03;;;;;;;73.97;24.50;;;;;;;13.49;100.00;99124.12;1705768;83;21564;-68
2022/08/29 03:49:31;;;;;;;67.97;27.62;;;;;;;13.52;100.00;99122.86;1702146;82;20968;-69
2022/08/29 03:52:08;;;;;;;47.03;21.35;;;;;;;13.56;100.00;99127.11;1688548;81;21592;-70
2022/08/29 03:54:41;;;;;;;42.93;20.48;;;;;;;13.62;100.00;99126.30;1691307;82;20932;-79
2022/08/29 03:57:11;;;;;;;113.28;57.83;;;;;;;13.66;100.00;99122.50;1690368;82;21927;-77
2022/08/29 03:59:39;;;;;;;65.70;30.77;;;;;;;13.76;100.00;99128.12;1696319;82;21078;-77
2022/08/29 04:02:17;;;;;;;88.22;38.28;;;;;;;13.86;100.00;99131.19;1694449;82;20943;-81
2022/08/29 04:05:06;;;;;;;64.27;27.70;;;;;;;13.97;100.00;99130.71;1684010;82;21008;-80
2022/08/29 04:07:47;;;;;;;73.55;31.23;;;;;;;14.09;100.00;99136.20;1688825;83;21130;-75
2022/08/29 04:10:23;;;;;;;59.67;30.10;;;;;;;14.23;100.00;99128.34;1691718;83;22149;-73
2022/08/29 04:12:59;;;;;;;77.08;27.95;;;;;;;14.36;100.00;99131.30;1688421;83;21065;-73
2022/08/29 04:15:29;;;;;;;47.50;23.15;;;;;;;14.50;100.00;99133.09;1671682;85;20893;-75
2022/08/29 04:17:59;;;;;;;35.68;18.92;;;;;;;14.64;100.00;99129.12;1690064;83;20972;-70
2022/08/29 04:20:33;;;;;;;33.85;18.23;;;;;;;14.82;100.00;99133.17;1695256;83;21431;-85
2022/08/29 04:23:04;;;;;;;30.60;16.65;;;;;;;14.99;100.00;99130.66;1705525;83;21129;-71
2022/08/29 04:25:36;;;;;;;34.03;16.17;;;;;;;15.15;100.00;99130.88;1687141;83;21062;-72
2022/08/29 04:28:10;;;;;;;32.73;16.82;;;;;;;15.30;100.00;99134.00;1700821;83;20931;-68
2022/08/29 04:30:41;;;;;;;28.62;14.98;;;;;;;15.45;100.00;99137.34;1659616;85;21008;-67
2022/08/29 04:33:09;;;;;;;34.80;15.00;;;;;;;15.60;100.00;99124.69;1704956;83;20918;-67
2022/08/29 04:35:40;;;;;;;34.27;15.65;;;;;;;15.75;100.00;99123.25;1699623;83;21237;-68
2022/08/29 04:38:08;;;;;;;32.88;14.83;;;;;;;15.89;100.00;99131.08;1682929;84;21034;-67
2022/08/29 04:40:44;;;;;;;30.85;16.07;;;;;;;16.03;100.00;99128.63;1701864;83;21090;-68
2022/08/29 04:43:12;;;;;;;30.52;14.70;;;;;;;16.18;100.00;99124.18;1698405;84;20946;-67
2022/08/29 04:45:40;;;;;;;28.23;13.80;;;;;;;16.31;100.00;99128.42;1697517;83;21422;-66
2022/08/29 04:48:16;;;;;;;35.92;15.25;;;;;;;16.47;100.00;99126.38;1683909;83;21144;-71
2022/08/29 04:50:59;;;;;;;32.90;15.03;;;;;;;16.61;100.00;99126.45;1697747;83;22233;-72
2022/08/29 04:53:36;;;;;;;26.55;13.22;;;;;;;16.75;100.00;99126.77;1688459;83;21095;-72
2022/08/29 04:56:12;;;;;;;28.65;14.03;;;;;;;16.90;100.00;99132.77;1687265;83;20961;-70
2022/08/29 04:58:41;;;;;;;21.68;13.65;;;;;;;17.04;100.00;99128.06;1687584;83;21049;-77
2022/08/29 05:01:16;;;;;;;29.23;14.13;;;;;;;17.18;100.00;99132.48;1699225;84;21241;-74
2022/08/29 05:03:47;;;;;;;26.62;13.65;;;;;;;17.32;100.00;99138.86;1683507;83;21020;-74
2022/08/29 05:06:16;;;;;;;27.77;13.20;;;;;;;17.47;99.27;99135.13;1696253;84;20998;-69
2022/08/29 05:08:53;;;;;;;26.07;14.13;;;;;;;17.61;98.58;99135.36;1677439;84;20922;-69
2022/08/29 05:11:24;;;;;;;29.72;12.85;;;;;;;17.75;97.76;99127.28;1695379;83;20990;-69
2022/08/29 05:14:01;;;;;;;26.35;12.68;;;;;;;17.90;96.79;99133.05;1700407;83;21101;-69
2022/08/29 05:16:40;;;;;;;25.90;11.97;;;;;;;18.08;95.85;99134.08;1688350;83;21566;-76
2022/08/29 05:19:15;;;;;;;28.00;12.80;;;;;;;18.22;95.12;99129.31;1702559;83;21069;-75
2022/08/29 05:21:43;;;;;;;23.87;12.28;;;;;;;18.39;93.85;99123.19;1672565;84;21021;-71
2022/08/29 05:24:14;;;;;;;23.10;11.50;;;;;;;18.57;91.03;99127.55;1693510;83;21481;-71
2022/08/29 05:26:51;;;;;;;26.57;11.15;;;;;;;18.74;89.71;99132.55;1694959;84;21659;-72
2022/08/29 05:29:21;;;;;;;22.22;11.93;;;;;;;18.89;87.23;99125.96;1694708;84;20930;-72
2022/08/29 05:31:51;;;;;;;28.42;12.00;;;;;;;19.05;86.92;99126.53;1695704;83;20867;-72
2022/08/29 05:34:22;;;;;;;24.72;11.85;;;;;;;19.20;84.76;99129.42;1701315;83;21048;-73
2022/08/29 05:36:52;;;;;;;;;;;;;;;19.33;83.60;99132.13;1707322;83;20914;-70
2022/08/29 05:39:24;;;;;;;22.55;11.33;;;;;;;19.46;82.94;99127.87;1701323;84;21166;-69
2022/08/29 05:41:55;;;;;;;26.65;11.65;;;;;;;19.58;81.52;99122.03;1705034;83;21017;-71
2022/08/29 05:44:25;;;;;;;26.75;12.18;;;;;;;19.71;81.41;99121.91;1701459;83;21591;-68
2022/08/29 05:46:55;;;;;;;22.58;11.63;;;;;;;19.83;80.28;99126.36;1701936;83;21093;-68
2022/08/29 05:49:22;;;;;;;27.07;11.33;;;;;;;19.97;79.63;99134.02;1701567;83;20936;-68
2022/08/29 05:51:54;;;;;;;27.98;12.73;;;;;;;20.10;78.70;99133.90;1689619;81;21514;-69
2022/08/29 05:54:25;;;;;;;21.93;10.93;;;;;;;20.23;78.00;99125.38;1693700;82;21026;-84
2022/08/29 05:56:59;;;;;;;24.87;10.88;;;;;;;20.37;76.37;99138.00;1688288;83;21442;-81
2022/08/29 05:59:31;;;;;;;21.50;11.38;;;;;;;20.48;74.21;99134.50;1689440;82;20999;-73
2022/08/29 06:01:58;;;;;;;20.23;11.03;;;;;;;20.56;74.53;99140.30;1684821;82;21542;-71
2022/08/29 06:04:29;;;;;;;22.50;12.68;;;;;;;20.69;75.33;99138.17;1688478;83;21047;-70
2022/08/29 06:07:01;;;;;;;22.37;11.40;;;;;;;20.85;74.72;99139.19;1664490;84;20984;-71
2022/08/29 06:09:32;;;;;;;18.07;10.63;;;;;;;21.01;74.91;99141.63;1692340;83;21469;-76
2022/08/29 06:12:02;;;;;;;23.85;11.88;;;;;;;21.18;73.24;99139.46;1692836;83;21006;-75
2022/08/29 06:14:30;;;;;;;22.22;11.43;;;;;;;21.32;71.03;99142.30;1670471;83;21625;-69
2022/08/29 06:17:05;;;;;;;22.35;11.03;;;;;;;21.43;70.94;99143.69;1665980;82;20985;-68
2022/08/29 06:19:38;;;;;;;23.83;11.20;;;;;;;21.57;70.20;99140.89;1689695;83;20945;-68
2022/08/29 06:22:08;;;;;;;23.90;10.70;;;;;;;21.74;71.09;99142.09;1650531;84;33856;-71
2022/08/29 06:24:38;;;;;;;22.62;11.08;;;;;;;21.90;70.28;99138.28;1674574;85;20958;-73
2022/08/29 06:27:05;;;;;;;18.85;10.18;;;;;;;22.06;69.77;99137.26;1677884;82;21001;-72
2022/08/29 06:29:32;;;;;;;25.95;10.93;;;;;;;22.24;68.58;99137.22;1708952;83;21631;-71
2022/08/29 06:32:06;;;;;;;14.83;9.10;;;;;;;22.40;67.57;99137.56;1691538;84;21107;-72
2022/08/29 06:34:33;;;;;;;23.27;10.28;;;;;;;22.55;65.76;99131.29;1674227;84;21018;-72
2022/08/29 06:37:03;;;;;;;25.80;10.28;;;;;;;22.73;66.52;99148.00;1697990;83;21540;-71
2022/08/29 06:39:30;;;;;;;20.12;10.68;;;;;;;22.90;66.54;99147.14;1697013;83;21009;-71
2022/08/29 06:42:03;;;;;;;20.43;10.35;;;;;;;23.12;64.73;99155.39;1689219;83;21215;-71
2022/08/29 06:44:34;;;;;;;19.12;9.85;;;;;;;23.29;63.81;99148.28;1673818;85;21485;-73
2022/08/29 06:47:08;;;;;;;28.32;9.73;;;;;;;23.45;62.44;99146.37;1682330;83;21023;-74
2022/08/29 06:49:38;;;;;;;20.12;9.23;;;;;;;23.60;61.59;99149.28;1694548;84;21552;-73
2022/08/29 06:52:08;;;;;;;19.20;9.08;;;;;;;23.77;60.21;99151.72;1694556;83;20935;-73
2022/08/29 06:54:39;;;;;;;20.82;9.75;;;;;;;23.93;59.73;99153.38;1673850;85;21133;-73
2022/08/29 06:57:18;;;;;;;14.55;7.83;;;;;;;24.09;59.38;99154.22;1681869;83;20875;-74
2022/08/29 06:59:52;;;;;;;19.95;9.35;;;;;;;24.25;58.16;99151.67;1687864;83;21180;-72
2022/08/29 07:02:28;;;;;;;14.98;8.88;;;;;;;24.44;59.30;99156.45;1691467;83;20956;-71
2022/08/29 07:04:56;;;;;;;16.23;8.73;;;;;;;24.66;58.75;99154.38;1700703;83;21012;-71
2022/08/29 07:07:24;;;;;;;23.35;9.43;;;;;;;24.86;56.12;99151.69;1698440;83;21276;-72
2022/08/29 07:09:59;;;;;;;28.40;9.70;;;;;;;25.03;56.31;99147.09;1670282;84;21057;-73
2022/08/29 07:12:31;;;;;;;21.77;9.70;;;;;;;25.24;57.01;99156.61;1668936;84;20953;-73
2022/08/29 07:15:03;;;;;;;19.95;8.85;;;;;;;25.46;56.49;99159.86;1673943;85;21000;-72
2022/08/29 07:17:35;;;;;;;28.90;9.73;;;;;;;25.70;55.51;99167.74;1677662;83;21479;-73
2022/08/29 07:20:06;;;;;;;14.47;8.33;;;;;;;25.88;53.74;99161.82;1680987;82;21264;-72
2022/08/29 07:22:54;;;;;;;15.05;8.93;;;;;;;26.01;52.29;99161.36;1694240;82;21437;-72
2022/08/29 07:25:23;;;;;;;17.12;8.58;;;;;;;26.13;52.91;99163.55;1675116;83;20953;-74
2022/08/29 07:27:57;;;;;;;18.67;8.93;;;;;;;26.30;52.61;99165.24;1668794;85;21074;-71
2022/08/29 07:30:30;;;;;;;12.45;8.33;;;;;;;26.49;52.63;99157.28;1672233;84;21025;-72
2022/08/29 07:33:09;;;;;;;13.53;7.70;;;;;;;26.72;51.50;99157.18;1679206;82;21170;-72
2022/08/29 07:35:39;;;;;;;15.65;8.28;;;;;;;26.90;49.31;99160.41;1671086;84;20925;-75
2022/08/29 07:38:14;;;;;;;15.98;7.75;;;;;;;27.04;47.71;99161.36;1674358;84;21135;-75
2022/08/29 07:40:48;;;;;;;14.40;8.03;;;;;;;27.10;48.12;99155.39;1669801;85;21017;-73
2022/08/29 07:43:19;;;;;;;24.20;7.95;;;;;;;27.24;47.65;99164.29;1671239;84;20945;-71
2022/08/29 07:45:55;;;;;;;18.10;7.42;;;;;;;27.41;47.51;99162.30;1673274;85;21111;-74
2022/08/29 07:48:26;;;;;;;15.18;7.28;;;;;;;27.59;46.15;99163.30;1684362;82;21144;-75
2022/08/29 07:50:59;;;;;;;18.17;7.62;;;;;;;27.75;46.36;99160.45;1701599;83;21480;-76
2022/08/29 07:53:34;;;;;;;21.17;7.80;;;;;;;27.97;46.25;99164.94;1692232;83;21048;-74
2022/08/29 07:56:12;;;;;;;15.45;7.22;;;;;;;28.20;45.52;99167.55;1673208;84;21578;-72
2022/08/29 07:58:49;;;;;;;21.45;7.55;;;;;;;28.53;45.07;99163.23;1687541;84;21243;-76
2022/08/29 08:01:17;;;;;;;15.85;7.42;;;;;;;28.95;44.99;99160.41;1691449;83;21510;-75
2022/08/29 08:03:55;;;;;;;16.05;7.58;;;;;;;29.43;44.45;99155.11;1689214;83;21053;-75
2022/08/29 08:06:22;;;;;;;17.30;8.43;;;;;;;29.89;42.62;99156.39;1664511;84;20924;-76
2022/08/29 08:08:53;;;;;;;12.33;7.70;;;;;;;30.22;42.48;99162.52;1680146;83;21549;-72
2022/08/29 08:11:24;;;;;;;11.40;7.87;;;;;;;30.50;39.98;99162.92;1694105;83;21120;-72
2022/08/29 08:14:02;;;;;;;16.37;7.73;;;;;;;30.79;39.69;99159.04;1686244;84;21614;-71
2022/08/29 08:16:36;;;;;;;18.25;7.65;;;;;;;31.04;39.03;99158.88;1682569;84;21051;-71
2022/08/29 08:19:05;;;;;;;13.65;6.95;;;;;;;31.26;38.79;99155.20;1688672;84;20947;-72
2022/08/29 08:21:37;;;;;;;20.23;7.33;;;;;;;31.45;36.90;99161.91;1690808;83;21051;-77
2022/08/29 08:24:06;;;;;;;12.93;6.42;;;;;;;31.60;36.42;99164.17;1673015;83;21123;-79
2022/08/29 08:26:39;;;;;;;14.65;6.53;;;;;;;31.73;36.24;99161.41;1695920;83;20956;-76
2022/08/29 08:29:13;;;;;;;20.82;7.10;;;;;;;31.85;34.16;99157.63;1676066;84;21004;-72
2022/08/29 08:31:48;;;;;;;11.78;6.83;;;;;;;31.92;35.07;99162.20;1692875;82;20952;-74
2022/08/29 08:34:20;;;;;;;11.78;6.55;;;;;;;32.02;34.61;99160.97;1696328;82;21073;-74
2022/08/29 08:36:52;;;;;;;13.08;6.28;;;;;;;32.14;34.89;99171.39;1692175;82;21134;-72
2022/08/29 08:39:23;;;;;;;15.20;7.28;;;;;;;32.32;33.30;99169.23;1686856;83;20935;-71
2022/08/29 08:41:58;;;;;;;13.70;6.70;;;;;;;32.47;32.58;99169.36;1696769;82;20968;-78
2022/08/29 08:44:46;;;;;;;15.60;6.30;;;;;;;32.53;33.10;99170.30;1686850;82;21009;-76
2022/08/29 08:47:15;;;;;;;16.70;6.83;;;;;;;32.73;34.49;99164.13;1682742;85;21035;-72
2022/08/29 08:49:48;;;;;;;11.60;5.53;;;;;;;32.98;32.29;99165.19;1693837;83;21246;-83
2022/08/29 08:52:25;;;;;;;13.65;6.50;;;;;;;33.15;31.54;99167.05;1686879;82;20895;-76
2022/08/29 08:54:56;;;;;;;9.30;6.15;;;;;;;33.19;31.63;99164.81;1697614;83;21031;-75
2022/08/29 08:57:22;;;;;;;15.20;7.20;;;;;;;33.24;31.90;99168.44;1689454;82;21617;-71
2022/08/29 08:59:54;;;;;;;64.00;9.63;;;;;;;33.33;32.08;99179.81;1675899;83;21136;-73
2022/08/29 09:02:37;;;;;;;15.75;7.28;;;;;;;33.32;30.65;99171.76;1650682;85;20953;-72
2022/08/29 09:05:55;;;;;;;12.33;5.80;;;;;;;33.33;30.72;99161.32;1672777;85;21091;-74
2022/08/29 09:08:56;;;;;;;11.20;6.22;;;;;;;33.34;30.73;99167.17;1671122;85;21080;-72
2022/08/29 09:11:55;;;;;;;18.23;6.37;;;;;;;33.47;30.39;99169.80;1642707;84;21000;-72
2022/08/29 09:14:39;;;;;;;29.98;8.20;;;;;;;33.52;30.40;99168.33;1678965;84;20957;-74
2022/08/29 09:17:11;;;;;;;15.35;6.60;;;;;;;33.58;29.89;99168.61;1638624;85;21180;-70
2022/08/29 09:19:39;;;;;;;12.75;6.00;;;;;;;33.56;30.25;99171.16;1695193;83;20853;-73
2022/08/29 09:22:14;;;;;;;12.63;6.50;;;;;;;33.61;29.00;99170.50;1688150;83;20963;-72
2022/08/29 09:24:52;;;;;;;26.35;6.70;;;;;;;33.62;28.85;99175.55;1704124;83;21050;-72
2022/08/29 09:27:24;;;;;;;13.88;6.00;;;;;;;33.53;28.95;99167.84;1632325;86;20962;-71
2022/08/29 09:30:08;;;;;;;10.38;5.75;;;;;;;33.54;29.12;99167.21;1644517;86;21875;-70
2022/08/29 09:32:51;;;;;;;9.98;5.12;;;;;;;33.51;28.82;99163.27;1641061;85;21042;-70
2022/08/29 09:35:23;;;;;;;7.92;4.85;;;;;;;33.56;29.62;99165.46;1632261;85;21650;-74
2022/08/29 09:38:03;;;;;;;;;;;;;;;33.76;29.25;99162.83;1706194;83;21010;-74
2022/08/29 09:40:53;;;;;;;15.50;5.72;;;;;;;33.84;28.76;99161.08;1693692;83;20199;-71
2022/08/29 09:43:45;;;;;;;14.23;5.42;;;;;;;33.79;29.13;99166.77;1702995;83;21139;-73
2022/08/29 09:46:26;;;;;;;16.60;5.65;;;;;;;33.90;29.86;99170.53;1698820;84;21501;-73
2022/08/29 09:49:07;;;;;;;20.10;6.05;;;;;;;34.05;29.53;99167.90;1701672;83;20981;-78
2022/08/29 09:51:42;;;;;;;15.48;5.85;;;;;;;34.27;29.40;99163.92;1701652;83;21493;-72
2022/08/29 09:54:30;;;;;;;24.10;6.10;;;;;;;34.46;28.11;99168.22;1684658;84;20997;-70
2022/08/29 09:57:20;;;;;;;13.18;5.22;;;;;;;34.33;29.16;99169.13;1677981;84;21824;-70
2022/08/29 10:00:15;;;;;;;23.65;7.08;;;;;;;34.08;28.86;99153.33;1684169;84;20968;-69
2022/08/29 10:02:50;;;;;;;23.85;5.55;;;;;;;34.10;29.70;99157.23;1694968;83;21582;-74
2022/08/29 10:05:35;;;;;;;26.12;5.80;;;;;;;34.33;29.19;99157.09;1703525;83;21561;-73
2022/08/29 10:08:12;;;;;;;21.68;5.45;;;;;;;34.48;27.95;99154.91;1696342;84;21571;-78
2022/08/29 10:10:41;;;;;;;15.80;5.53;;;;;;;34.48;28.79;99154.27;1663566;83;21206;-71
2022/08/29 10:13:25;;;;;;;16.15;5.47;;;;;;;34.55;28.21;99159.59;1660821;83;21017;-71
2022/08/29 10:16:06;;;;;;;13.98;5.17;;;;;;;34.39;28.18;99157.99;1696420;83;20958;-72
2022/08/29 10:18:47;;;;;;;12.00;5.55;;;;;;;34.08;29.30;99161.20;1702984;82;20995;-72
2022/08/29 10:21:31;;;;;;;14.93;5.25;;;;;;;33.75;28.69;99156.19;1720028;81;21610;-73
2022/08/29 10:24:10;;;;;;;14.93;5.33;;;;;;;33.46;29.41;99161.11;1679632;84;21944;-73
2022/08/29 10:27:09;;;;;;;13.98;5.42;;;;;;;33.38;30.24;99153.55;1650141;85;21216;-73
2022/08/29 10:30:03;;;;;;;12.28;4.72;;;;;;;33.47;30.16;99148.46;1652710;85;21007;-71
2022/08/29 10:33:03;;;;;;;13.62;5.35;;;;;;;33.91;29.53;99140.79;1619104;86;21506;-71
2022/08/29 10:35:40;;;;;;;13.75;5.22;;;;;;;33.96;28.96;99143.75;1642723;84;21064;-72
2022/08/29 10:38:41;;;;;;;28.75;5.72;;;;;;;33.56;29.23;99149.81;1688892;83;21171;-72
2022/08/29 10:41:29;;;;;;;20.27;6.28;;;;;;;33.31;29.99;99152.48;1666647;84;21115;-71
2022/08/29 10:44:16;;;;;;;11.08;4.78;;;;;;;33.28;31.05;99144.91;1626873;84;20998;-71
2022/08/29 10:46:59;;;;;;;12.35;5.62;;;;;;;33.68;30.86;99140.89;1674626;85;21115;-71
2022/08/29 10:50:02;;;;;;;18.55;6.12;;;;;;;34.21;30.61;99124.56;1672793;84;21013;-71
2022/08/29 10:53:00;;;;;;;13.53;4.78;;;;;;;34.72;29.96;99140.72;1673825;85;21876;-72
2022/08/29 10:55:47;;;;;;;12.73;4.47;;;;;;;35.15;28.18;99138.38;1669077;85;20965;-70
2022/08/29 10:58:38;;;;;;;20.37;4.53;;;;;;;35.43;27.94;99126.63;1667929;84;21001;-71
2022/08/29 11:01:22;;;;;;;20.97;4.58;;;;;;;35.62;27.36;99126.53;1670009;85;20973;-71
2022/08/29 11:04:20;;;;;;;13.18;4.70;;;;;;;35.69;27.63;99132.61;1606342;87;20916;-71
2022/08/29 11:07:33;;;;;;;14.47;4.67;;;;;;;35.56;26.68;99135.66;1600485;88;21014;-71
2022/08/29 11:09:58;;;;;;;21.27;5.15;;;;;;;35.28;27.70;99133.13;1624613;87;21090;-71
2022/08/29 11:12:46;;;;;;;25.02;5.30;;;;;;;35.35;27.72;99144.80;1625799;86;21081;-71
2022/08/29 11:15:42;;;;;;;14.63;4.83;;;;;;;35.49;27.36;99137.48;1676670;84;20965;-71
2022/08/29 11:18:17;;;;;;;16.17;4.22;;;;;;;35.54;26.76;99133.30;1676968;84;21009;-71
2022/08/29 11:20:54;;;;;;;30.88;5.22;;;;;;;35.59;27.21;99141.16;1697978;83;21958;-71
2022/08/29 11:23:37;;;;;;;13.75;4.28;;;;;;;35.56;26.46;99137.86;1699396;83;21014;-71
2022/08/29 11:26:23;;;;;;;13.28;4.62;;;;;;;35.48;26.77;99131.00;1667856;84;20991;-71
2022/08/29 11:29:35;;;;;;;14.25;4.33;;;;;;;35.58;27.23;99126.73;1660071;85;21431;-71
2022/08/29 11:32:30;;;;;;;6.95;3.83;;;;;;;35.82;26.03;99127.23;1679653;83;21073;-71
2022/08/29 11:35:20;;;;;;;13.70;3.90;;;;;;;35.63;26.02;99135.23;1698922;83;21172;-71
2022/08/29 11:38:10;;;;;;;7.83;3.77;;;;;;;35.52;26.24;99124.44;1697714;83;20962;-72
2022/08/29 11:41:10;;;;;;;10.72;3.95;;;;;;;35.70;26.06;99138.46;1646600;83;21033;-71
2022/08/29 11:43:41;;;;;;;13.83;3.75;;;;;;;35.70;26.03;99134.82;1706868;83;20934;-71
2022/08/29 11:46:14;;;;;;;15.70;4.25;;;;;;;35.59;26.46;99126.88;1685380;83;21040;-71
2022/08/29 11:48:53;;;;;;;32.73;4.55;;;;;;;35.78;26.78;99126.63;1700116;84;21230;-72
2022/08/29 11:51:36;;;;;;;23.12;5.10;;;;;;;36.12;25.34;99135.78;1702471;83;20962;-71
2022/08/29 11:54:29;;;;;;;12.10;3.80;;;;;;;36.14;25.60;99129.56;1695161;83;20939;-71
2022/08/29 11:57:03;;;;;;;11.65;4.00;;;;;;;35.95;24.94;99129.84;1685844;84;21497;-71